createdAt,value
2023-06-21T00:03:02.411Z,19.77
2023-06-21T00:23:05.076Z,22.27
2023-06-21T00:43:07.594Z,20.17
2023-06-21T01:03:10.040Z,18.80
2023-06-21T01:23:12.516Z,19.58
2023-06-21T01:43:15.016Z,18.95
2023-06-21T02:03:17.661Z,17.70
2023-06-21T02:23:20.122Z,19.33
2023-06-21T02:43:22.711Z,16.60
2023-06-21T03:03:25.339Z,17.23
2023-06-21T03:23:27.937Z,17.17
2023-06-21T03:43:30.494Z,16.07
2023-06-21T04:03:33.072Z,14.33
2023-06-21T04:23:35.840Z,15.15
2023-06-21T04:43:38.406Z,15.38
2023-06-21T05:03:40.903Z,14.05
2023-06-21T05:23:43.528Z,13.43
2023-06-21T05:43:46.130Z,14.43
2023-06-21T06:03:48.904Z,12.90
2023-06-21T06:23:51.564Z,11.68
2023-06-21T06:43:54.145Z,13.45
2023-06-21T07:03:56.681Z,15.33
2023-06-21T07:23:59.245Z,12.53
2023-06-21T07:44:01.687Z,13.50
2023-06-21T08:04:04.153Z,12.48
2023-06-21T08:24:06.782Z,11.60
2023-06-21T08:44:09.349Z,11.93
2023-06-21T09:04:12.121Z,11.67
2023-06-21T09:24:15.028Z,11.50
2023-06-21T09:44:17.639Z,10.48
2023-06-21T10:04:21.556Z,10.57
2023-06-21T10:24:24.125Z,10.87
2023-06-21T10:44:26.794Z,11.13
2023-06-21T11:04:36.313Z,9.73
2023-06-21T11:24:44.675Z,10.07
2023-06-21T11:44:47.247Z,9.95
2023-06-21T12:04:49.971Z,9.80
2023-06-21T12:24:52.784Z,9.53
2023-06-21T12:44:55.377Z,9.70
2023-06-21T13:04:57.932Z,9.60
2023-06-21T13:25:00.640Z,9.65
2023-06-21T13:45:03.173Z,10.33
2023-06-21T14:05:05.627Z,20.57
2023-06-21T14:25:08.069Z,12.80
2023-06-21T14:45:10.515Z,11.50
2023-06-21T15:05:13.014Z,11.38
2023-06-21T15:25:15.559Z,11.73
2023-06-21T15:45:17.960Z,11.47
2023-06-21T16:05:20.471Z,11.63
2023-06-21T16:25:22.988Z,12.07
2023-06-21T16:45:25.534Z,12.43
2023-06-21T17:05:28.393Z,12.23
2023-06-21T17:25:31.321Z,12.07
2023-06-21T17:45:34.059Z,13.55
2023-06-21T18:05:36.610Z,14.73
2023-06-21T18:25:39.151Z,16.17
2023-06-21T18:45:41.653Z,16.50
2023-06-21T19:05:44.076Z,18.77
2023-06-21T19:25:46.500Z,18.25
2023-06-21T19:45:49.014Z,20.30
2023-06-21T20:05:51.510Z,16.02
2023-06-21T20:25:53.996Z,10.43
2023-06-21T20:45:56.420Z,11.00
2023-06-21T21:05:58.915Z,10.95
2023-06-21T21:26:01.540Z,12.30
2023-06-21T21:46:04.058Z,14.77
2023-06-21T22:06:06.517Z,15.57
2023-06-21T22:26:08.998Z,19.23
2023-06-21T22:46:11.501Z,19.50
2023-06-21T23:06:13.997Z,16.77
2023-06-21T23:26:16.465Z,13.80
2023-06-21T23:46:18.995Z,12.90
